Terminal Aerodrome Forecast
Issued by NWS

Home | Current Version | Previous Version | Text Only | Print | Product List | Glossary On
Versions: 1 2 3 4 5 6 7 8 9 10 11 12 13 14 15 16 17 18
000
FTUS44 KHGX 251728
TAFCXO
TAF
KCXO 251728Z 2518/2618 VRB04KT P6SM VCTS SCT040CB BKN080 OVC250
      TEMPO 2518/2520 VRB08G20KT TSRA BKN035CB
     FM252000 VRB10KT P6SM VCTS BKN040CB OVC250
      TEMPO 2520/2524 VRB10G20KT 4SM TSRA
     FM260130 VRB02KT P6SM VCSH SCT040
     FM260300 VRB02KT P6SM SCT025 SCT120
     FM261600 VRB03KT P6SM VCTS SCT035CB=

USA.gov is the U.S. government's official web portal to all federal, state and local government web resources and services.